createdAt,value
2022-07-30T00:00:57.836Z,34.00
2022-07-30T00:03:28.561Z,33.70
2022-07-30T00:05:58.852Z,33.70
2022-07-30T00:08:29.236Z,33.50
2022-07-30T00:11:01.405Z,33.40
2022-07-30T00:13:39.633Z,33.40
2022-07-30T00:16:10.826Z,33.30
2022-07-30T00:18:41.268Z,33.10
2022-07-30T00:21:20.031Z,33.10
2022-07-30T00:24:03.764Z,33.10
2022-07-30T00:26:33.783Z,32.90
2022-07-30T00:29:04.297Z,32.90
2022-07-30T00:31:35.718Z,32.90
2022-07-30T00:34:07.541Z,33.00
2022-07-30T00:36:38.558Z,32.80
2022-07-30T00:39:09.970Z,32.80
2022-07-30T00:42:04.092Z,32.80
2022-07-30T00:44:35.330Z,32.80
2022-07-30T00:47:09.704Z,32.60
2022-07-30T00:49:44.162Z,32.60
2022-07-30T00:52:16.319Z,32.60
2022-07-30T00:54:50.101Z,32.50
2022-07-30T00:57:21.345Z,32.30
2022-07-30T00:59:51.622Z,32.40
2022-07-30T01:02:22.259Z,32.30
2022-07-30T01:04:52.754Z,32.30
2022-07-30T01:07:27.335Z,32.30
2022-07-30T01:10:01.178Z,32.30
2022-07-30T01:12:31.616Z,32.20
2022-07-30T01:15:04.532Z,32.10
2022-07-30T01:17:35.993Z,32.10
2022-07-30T01:20:12.968Z,32.10
2022-07-30T01:23:09.654Z,32.00
2022-07-30T01:26:02.596Z,31.80
2022-07-30T01:28:38.601Z,31.80
2022-07-30T01:31:11.397Z,31.80
2022-07-30T01:33:45.308Z,31.80
2022-07-30T01:36:18.728Z,31.70
2022-07-30T01:38:53.375Z,31.70
2022-07-30T01:41:25.010Z,31.60
2022-07-30T01:43:56.959Z,31.60
2022-07-30T01:46:29.173Z,31.50
2022-07-30T01:49:02.831Z,31.50
2022-07-30T01:51:37.241Z,31.40
2022-07-30T01:54:15.525Z,31.30
2022-07-30T01:56:48.086Z,31.40
2022-07-30T01:59:23.556Z,31.40
2022-07-30T02:01:54.537Z,31.30
2022-07-30T02:04:25.022Z,31.40
2022-07-30T02:07:11.511Z,31.20
2022-07-30T02:10:08.890Z,31.10
2022-07-30T02:12:52.509Z,31.20
2022-07-30T02:15:37.252Z,31.10
2022-07-30T02:18:16.542Z,31.10
2022-07-30T02:20:57.375Z,30.90
2022-07-30T02:23:35.513Z,31.00
2022-07-30T02:26:09.769Z,30.90
2022-07-30T02:28:49.248Z,30.80
2022-07-30T02:31:26.737Z,30.90
2022-07-30T02:34:06.239Z,30.90
2022-07-30T02:36:38.055Z,30.80
2022-07-30T02:39:10.474Z,30.70
2022-07-30T02:41:46.665Z,30.80
2022-07-30T02:44:21.961Z,30.70
2022-07-30T02:46:53.675Z,30.70
2022-07-30T02:49:49.651Z,30.60
2022-07-30T02:52:25.171Z,30.50
2022-07-30T02:54:59.247Z,30.50
2022-07-30T02:57:33.341Z,30.50
2022-07-30T03:00:07.117Z,30.40
2022-07-30T03:02:39.461Z,30.40
2022-07-30T03:05:10.931Z,30.40
2022-07-30T03:07:43.087Z,30.40
2022-07-30T03:10:16.057Z,30.20
2022-07-30T03:12:48.723Z,30.30
2022-07-30T03:15:21.033Z,30.20
2022-07-30T03:17:56.023Z,30.20
2022-07-30T03:20:31.102Z,30.20
2022-07-30T03:23:05.371Z,30.20
2022-07-30T03:25:38.820Z,30.20
2022-07-30T03:28:12.344Z,30.10
2022-07-30T03:30:46.426Z,30.10
2022-07-30T03:33:18.428Z,29.90
2022-07-30T03:35:51.273Z,30.00
2022-07-30T03:38:23.169Z,30.00
2022-07-30T03:40:54.691Z,29.80
2022-07-30T03:43:33.000Z,29.80
2022-07-30T03:46:08.810Z,29.90
2022-07-30T03:48:43.148Z,29.80
2022-07-30T03:51:15.842Z,29.80
2022-07-30T03:53:48.855Z,29.80
2022-07-30T03:56:39.626Z,29.80
2022-07-30T03:59:15.991Z,29.80
2022-07-30T04:01:49.116Z,29.80
2022-07-30T04:04:30.140Z,29.90
2022-07-30T04:07:00.516Z,29.90
2022-07-30T04:09:31.757Z,29.90
2022-07-30T04:12:15.042Z,29.70
2022-07-30T04:14:47.531Z,29.70
2022-07-30T04:17:32.329Z,29.70
2022-07-30T04:20:18.837Z,29.70
2022-07-30T04:22:49.639Z,29.80
2022-07-30T04:25:24.667Z,29.70
2022-07-30T04:28:03.632Z,29.70
2022-07-30T04:30:36.255Z,29.70
2022-07-30T04:33:09.746Z,29.60
2022-07-30T04:36:14.997Z,29.70
2022-07-30T04:38:47.094Z,29.70
2022-07-30T04:41:16.965Z,29.70
2022-07-30T04:44:14.915Z,29.70
2022-07-30T04:47:01.484Z,29.70
2022-07-30T04:49:33.820Z,29.70
2022-07-30T04:52:07.627Z,29.70
2022-07-30T04:54:58.522Z,29.60
2022-07-30T04:57:29.718Z,29.50
2022-07-30T05:00:02.970Z,29.60
2022-07-30T05:02:36.336Z,29.60
2022-07-30T05:05:10.640Z,29.50
2022-07-30T05:07:42.103Z,29.50
2022-07-30T05:10:15.709Z,29.50
2022-07-30T05:12:45.886Z,29.50
2022-07-30T05:15:23.828Z,29.40
2022-07-30T05:18:13.173Z,29.40
2022-07-30T05:20:46.329Z,29.40
2022-07-30T05:23:28.655Z,29.40
2022-07-30T05:26:27.944Z,29.30
2022-07-30T05:28:59.791Z,29.30
2022-07-30T05:31:50.565Z,29.30
2022-07-30T05:34:23.847Z,29.30
2022-07-30T05:36:59.881Z,29.20
2022-07-30T05:39:30.845Z,29.20
2022-07-30T05:42:23.244Z,29.10
2022-07-30T05:45:01.802Z,29.10
2022-07-30T05:47:31.771Z,29.00
2022-07-30T05:50:14.995Z,29.00
2022-07-30T05:52:45.588Z,28.90
2022-07-30T05:55:38.412Z,29.00
2022-07-30T05:58:43.914Z,29.00
2022-07-30T06:01:20.701Z,29.00
2022-07-30T06:03:54.934Z,28.90
2022-07-30T06:06:55.412Z,28.90
2022-07-30T06:09:36.844Z,28.80
2022-07-30T06:12:12.060Z,28.70
2022-07-30T06:14:51.545Z,28.70
2022-07-30T06:17:26.849Z,28.70
2022-07-30T06:20:09.743Z,28.70
2022-07-30T06:22:51.075Z,28.60
2022-07-30T06:25:28.864Z,28.60
2022-07-30T06:28:15.678Z,28.60
2022-07-30T06:30:56.632Z,28.60
2022-07-30T06:33:29.546Z,28.50
2022-07-30T06:36:04.196Z,28.50
2022-07-30T06:38:44.491Z,28.50
2022-07-30T06:41:20.140Z,28.50
2022-07-30T06:43:54.870Z,28.40
2022-07-30T06:46:54.071Z,28.40
2022-07-30T06:49:27.995Z,28.40
2022-07-30T06:51:58.239Z,28.30
2022-07-30T06:54:28.077Z,28.30
2022-07-30T06:57:19.253Z,28.20
2022-07-30T06:59:56.368Z,28.10
2022-07-30T07:02:40.762Z,28.10
2022-07-30T07:05:15.985Z,28.10
2022-07-30T07:07:59.182Z,28.20
2022-07-30T07:10:37.765Z,28.00
2022-07-30T07:13:17.220Z,28.00
2022-07-30T07:15:47.555Z,28.00
2022-07-30T07:18:21.337Z,27.90
2022-07-30T07:21:11.883Z,27.80
2022-07-30T07:23:44.606Z,27.80
2022-07-30T07:26:42.005Z,27.90
2022-07-30T07:29:12.916Z,27.80
2022-07-30T07:32:05.399Z,27.80
2022-07-30T07:34:43.069Z,27.80
2022-07-30T07:37:17.337Z,27.70
2022-07-30T07:39:49.180Z,27.70
2022-07-30T07:42:21.706Z,27.70
2022-07-30T07:44:54.052Z,27.70
2022-07-30T07:47:25.861Z,27.60
2022-07-30T07:50:11.387Z,27.50
2022-07-30T07:52:47.356Z,27.50
2022-07-30T07:55:21.762Z,27.40
2022-07-30T07:57:53.332Z,27.40
2022-07-30T08:00:26.644Z,27.40
2022-07-30T08:02:58.427Z,27.40
2022-07-30T08:06:00.758Z,27.30
2022-07-30T08:08:35.312Z,27.30
2022-07-30T08:11:39.385Z,27.30
2022-07-30T08:14:50.444Z,27.30
2022-07-30T08:17:52.853Z,27.30
2022-07-30T08:20:33.650Z,27.20
2022-07-30T08:23:09.213Z,27.10
2022-07-30T08:25:40.315Z,27.10
2022-07-30T08:28:35.390Z,27.20
2022-07-30T08:31:03.807Z,27.10
2022-07-30T08:33:40.984Z,27.10
2022-07-30T08:36:12.075Z,27.10
2022-07-30T08:38:45.455Z,27.00
2022-07-30T08:41:20.155Z,27.00
2022-07-30T08:43:52.402Z,27.10
2022-07-30T08:46:27.261Z,27.10
2022-07-30T08:49:09.116Z,27.00
2022-07-30T08:51:43.655Z,27.00
2022-07-30T08:54:24.170Z,27.00
2022-07-30T08:56:57.195Z,26.90
2022-07-30T08:59:59.363Z,26.80
2022-07-30T09:02:27.173Z,26.80
2022-07-30T09:05:08.241Z,26.90
2022-07-30T09:07:38.288Z,26.80
2022-07-30T09:10:16.874Z,26.90
2022-07-30T09:12:48.999Z,26.80
2022-07-30T09:15:24.575Z,26.90
2022-07-30T09:17:59.047Z,26.80
2022-07-30T09:20:36.961Z,26.70
2022-07-30T09:23:10.461Z,26.60
2022-07-30T09:26:04.339Z,26.70
2022-07-30T09:28:41.109Z,26.60
2022-07-30T09:31:32.698Z,26.60
2022-07-30T09:34:28.380Z,26.60
2022-07-30T09:37:20.640Z,26.60
2022-07-30T09:40:20.797Z,26.50
2022-07-30T09:43:19.166Z,26.40
2022-07-30T09:45:57.051Z,26.50
2022-07-30T09:48:35.985Z,26.50
2022-07-30T09:51:15.596Z,26.40
2022-07-30T09:54:03.730Z,26.40
2022-07-30T09:56:38.216Z,26.40
2022-07-30T09:59:19.805Z,26.30
2022-07-30T10:01:57.772Z,26.30
2022-07-30T10:04:50.939Z,26.40
2022-07-30T10:07:25.574Z,26.40
2022-07-30T10:10:01.634Z,26.40
2022-07-30T10:12:35.159Z,26.30
2022-07-30T10:15:13.735Z,26.30
2022-07-30T10:17:44.124Z,26.20
2022-07-30T10:20:30.243Z,26.30
2022-07-30T10:23:10.717Z,26.20
2022-07-30T10:26:19.353Z,26.10
2022-07-30T10:29:33.619Z,26.10
2022-07-30T10:32:04.530Z,26.10
2022-07-30T10:34:35.445Z,26.00
2022-07-30T10:37:10.513Z,26.10
2022-07-30T10:39:57.637Z,26.10
2022-07-30T10:42:57.475Z,26.10
2022-07-30T10:45:42.538Z,26.00
2022-07-30T10:48:17.376Z,26.10
2022-07-30T10:51:01.088Z,26.00
2022-07-30T10:53:49.418Z,26.00
2022-07-30T10:56:25.898Z,26.00
2022-07-30T10:59:07.774Z,26.00
2022-07-30T11:01:53.376Z,26.00
2022-07-30T11:04:31.416Z,26.00
2022-07-30T11:07:24.137Z,25.90
2022-07-30T11:10:05.212Z,25.80
2022-07-30T11:12:52.805Z,26.00
2022-07-30T11:15:23.577Z,25.80
2022-07-30T11:18:12.268Z,25.80
2022-07-30T11:20:48.439Z,25.90
2022-07-30T11:23:25.603Z,25.90
2022-07-30T11:25:58.534Z,25.80
2022-07-30T11:28:49.394Z,25.90
2022-07-30T11:31:36.853Z,25.80
2022-07-30T11:34:24.200Z,25.80
2022-07-30T11:37:18.779Z,25.80
2022-07-30T11:39:58.035Z,25.70
2022-07-30T11:42:32.976Z,25.70
2022-07-30T11:45:24.260Z,25.70
2022-07-30T11:47:56.826Z,25.70
2022-07-30T11:50:34.056Z,25.70
2022-07-30T11:53:06.896Z,25.70
2022-07-30T11:55:49.605Z,25.60
2022-07-30T11:58:39.778Z,25.70
2022-07-30T12:01:20.158Z,25.80
2022-07-30T12:03:50.020Z,25.70
2022-07-30T12:06:25.617Z,25.70
2022-07-30T12:08:58.553Z,25.70
2022-07-30T12:11:37.542Z,25.70
2022-07-30T12:14:10.803Z,25.70
2022-07-30T12:16:43.416Z,25.70
2022-07-30T12:19:19.710Z,25.80
2022-07-30T12:21:53.609Z,25.80
2022-07-30T12:24:30.349Z,25.80
2022-07-30T12:27:09.000Z,25.70
2022-07-30T12:29:38.623Z,25.70
2022-07-30T12:32:10.135Z,25.80
2022-07-30T12:34:41.930Z,25.80
2022-07-30T12:37:13.660Z,25.80
2022-07-30T12:39:45.276Z,25.80
2022-07-30T12:42:25.254Z,25.80
2022-07-30T12:44:57.485Z,26.00
2022-07-30T12:47:33.467Z,26.00
2022-07-30T12:50:10.723Z,25.90
2022-07-30T12:52:44.987Z,26.10
2022-07-30T12:55:15.217Z,26.10
2022-07-30T12:58:09.219Z,26.20
2022-07-30T13:00:55.681Z,26.20
2022-07-30T13:03:40.366Z,26.20
2022-07-30T13:06:18.890Z,26.30
2022-07-30T13:08:54.492Z,26.40
2022-07-30T13:11:28.167Z,26.30
2022-07-30T13:13:58.994Z,26.40
2022-07-30T13:16:35.527Z,26.40
2022-07-30T13:19:14.553Z,26.40
2022-07-30T13:21:49.790Z,26.50
2022-07-30T13:24:23.783Z,26.70
2022-07-30T13:26:54.113Z,26.70
2022-07-30T13:29:23.946Z,26.70
2022-07-30T13:31:56.336Z,26.80
2022-07-30T13:34:26.438Z,26.90
2022-07-30T13:36:57.051Z,26.90
2022-07-30T13:39:27.935Z,27.00
2022-07-30T13:41:59.948Z,27.10
2022-07-30T13:44:29.305Z,27.10
2022-07-30T13:47:02.161Z,27.10
2022-07-30T13:49:33.440Z,27.20
2022-07-30T13:52:03.586Z,27.30
2022-07-30T13:54:33.185Z,27.40
2022-07-30T13:57:04.828Z,27.40
2022-07-30T13:59:36.918Z,27.50
2022-07-30T14:02:07.993Z,27.50
2022-07-30T14:04:37.046Z,27.40
2022-07-30T14:07:07.616Z,27.50
2022-07-30T14:09:44.876Z,27.60
2022-07-30T14:12:18.788Z,27.70
2022-07-30T14:14:50.367Z,27.80
2022-07-30T14:17:21.314Z,27.80
2022-07-30T14:19:55.655Z,27.80
2022-07-30T14:22:27.564Z,27.80
2022-07-30T14:24:58.801Z,28.00
2022-07-30T14:27:29.089Z,28.10
2022-07-30T14:29:59.079Z,28.10
2022-07-30T14:32:32.671Z,28.20
2022-07-30T14:35:04.957Z,28.20
2022-07-30T14:37:37.140Z,28.30
2022-07-30T14:40:13.404Z,28.30
2022-07-30T14:42:44.065Z,28.40
2022-07-30T14:45:13.777Z,28.40
2022-07-30T14:47:43.735Z,28.60
2022-07-30T14:50:13.588Z,28.60
2022-07-30T14:52:44.642Z,28.60
2022-07-30T14:55:16.814Z,28.60
2022-07-30T14:57:46.942Z,28.70
2022-07-30T15:00:21.325Z,28.80
2022-07-30T15:02:55.391Z,28.90
2022-07-30T15:05:28.220Z,29.00
2022-07-30T15:08:00.852Z,29.00
2022-07-30T15:10:31.513Z,29.00
2022-07-30T15:13:03.045Z,29.20
2022-07-30T15:15:38.295Z,29.20
2022-07-30T15:18:10.234Z,29.20
2022-07-30T15:20:43.942Z,29.40
2022-07-30T15:23:15.421Z,29.50
2022-07-30T15:25:47.873Z,29.50
2022-07-30T15:28:19.460Z,29.60
2022-07-30T15:30:50.995Z,29.60
2022-07-30T15:33:21.091Z,29.80
2022-07-30T15:35:50.846Z,29.70
2022-07-30T15:38:22.098Z,29.80
2022-07-30T15:40:53.738Z,29.80
2022-07-30T15:43:22.886Z,29.90
2022-07-30T15:45:55.740Z,30.00
2022-07-30T15:48:27.602Z,30.10
2022-07-30T15:51:05.435Z,30.20
2022-07-30T15:53:40.584Z,30.30
2022-07-30T15:56:14.300Z,30.30
2022-07-30T15:58:44.508Z,30.30
2022-07-30T16:01:15.101Z,30.40
2022-07-30T16:03:46.479Z,30.30
2022-07-30T16:06:17.938Z,30.50
2022-07-30T16:08:49.078Z,30.50
2022-07-30T16:11:19.712Z,30.50
2022-07-30T16:13:53.517Z,30.60
2022-07-30T16:16:23.950Z,30.70
2022-07-30T16:18:55.508Z,30.80
2022-07-30T16:21:30.350Z,31.00
2022-07-30T16:24:04.698Z,31.00
2022-07-30T16:26:40.144Z,31.00
2022-07-30T16:29:13.731Z,31.00
2022-07-30T16:31:48.055Z,31.00
2022-07-30T16:34:23.027Z,31.20
2022-07-30T16:37:03.734Z,31.20
2022-07-30T16:39:35.496Z,31.20
2022-07-30T16:42:09.301Z,31.30
2022-07-30T16:44:42.994Z,31.50
2022-07-30T16:47:14.182Z,31.70
2022-07-30T16:49:44.420Z,31.70
2022-07-30T16:52:15.517Z,31.50
2022-07-30T16:54:45.330Z,31.70
2022-07-30T16:57:16.597Z,31.80
2022-07-30T16:59:47.433Z,31.70
2022-07-30T17:02:19.747Z,31.80
2022-07-30T17:04:50.484Z,31.80
2022-07-30T17:07:22.139Z,32.00
2022-07-30T17:09:54.888Z,32.00
2022-07-30T17:12:28.454Z,32.00
2022-07-30T17:14:58.324Z,31.90
2022-07-30T17:17:35.960Z,32.20
2022-07-30T17:20:07.738Z,32.50
2022-07-30T17:22:44.459Z,32.40
2022-07-30T17:25:15.882Z,32.50
2022-07-30T17:27:47.141Z,32.50
2022-07-30T17:30:20.702Z,32.60
2022-07-30T17:32:54.090Z,32.80
2022-07-30T17:35:26.200Z,32.90
2022-07-30T17:37:56.002Z,32.70
2022-07-30T17:40:31.580Z,32.80
2022-07-30T17:43:05.533Z,32.80
2022-07-30T17:45:39.127Z,32.90
2022-07-30T17:48:13.491Z,32.80
2022-07-30T17:50:45.931Z,32.90
2022-07-30T17:53:28.362Z,32.80
2022-07-30T17:55:59.383Z,32.90
2022-07-30T17:58:31.808Z,33.20
2022-07-30T18:01:06.372Z,33.30
2022-07-30T18:03:37.226Z,33.10
2022-07-30T18:06:17.768Z,33.30
2022-07-30T18:08:50.735Z,33.40
2022-07-30T18:11:21.864Z,33.40
2022-07-30T18:13:55.041Z,33.50
2022-07-30T18:16:26.223Z,33.70
2022-07-30T18:18:55.980Z,33.60
2022-07-30T18:21:26.881Z,33.60
2022-07-30T18:24:00.165Z,33.70
2022-07-30T18:26:39.359Z,33.70
2022-07-30T18:29:13.770Z,33.80
2022-07-30T18:31:47.751Z,33.80
2022-07-30T18:34:22.205Z,33.90
2022-07-30T18:36:55.337Z,33.80
2022-07-30T18:39:30.690Z,33.90
2022-07-30T18:42:01.211Z,33.80
2022-07-30T18:44:32.203Z,33.70
2022-07-30T18:47:05.091Z,34.00
2022-07-30T18:49:37.561Z,34.00
2022-07-30T18:52:08.882Z,34.00
2022-07-30T18:54:49.678Z,33.80
2022-07-30T18:57:20.668Z,34.00
2022-07-30T18:59:55.638Z,34.10
2022-07-30T19:02:30.364Z,34.30
2022-07-30T19:05:00.445Z,34.40
2022-07-30T19:07:48.166Z,34.50
2022-07-30T19:10:27.210Z,34.30
2022-07-30T19:12:58.626Z,34.50
2022-07-30T19:15:32.918Z,34.60
2022-07-30T19:18:05.802Z,34.40
2022-07-30T19:20:42.271Z,34.60
2022-07-30T19:23:21.936Z,34.60
2022-07-30T19:25:55.770Z,34.70
2022-07-30T19:28:25.986Z,34.60
2022-07-30T19:30:57.561Z,34.80
2022-07-30T19:33:29.399Z,34.90
2022-07-30T19:36:04.265Z,35.10
2022-07-30T19:38:44.212Z,35.10
2022-07-30T19:41:16.708Z,35.10
2022-07-30T19:43:57.723Z,35.10
2022-07-30T19:46:33.118Z,35.30
2022-07-30T19:49:04.452Z,35.40
2022-07-30T19:52:22.957Z,35.40
2022-07-30T19:54:31.469Z,35.20
2022-07-30T19:57:20.758Z,35.40
2022-07-30T20:00:00.256Z,35.40
2022-07-30T20:02:43.059Z,35.50
2022-07-30T20:05:15.285Z,35.30
2022-07-30T20:07:49.129Z,35.20
2022-07-30T20:10:26.382Z,35.10
2022-07-30T20:13:00.770Z,35.50
2022-07-30T20:15:40.259Z,35.30
2022-07-30T20:18:12.016Z,35.50
2022-07-30T20:20:45.415Z,35.70
2022-07-30T20:23:24.572Z,35.70
2022-07-30T20:26:18.989Z,35.80
2022-07-30T20:28:55.819Z,35.70
2022-07-30T20:31:32.585Z,35.50
2022-07-30T20:34:17.740Z,35.30
2022-07-30T20:36:50.102Z,35.50
2022-07-30T20:39:28.278Z,35.30
2022-07-30T20:42:28.903Z,35.30
2022-07-30T20:45:13.956Z,35.60
2022-07-30T20:48:16.979Z,35.60
2022-07-30T20:53:56.636Z,35.60
2022-07-30T20:56:32.592Z,35.80
2022-07-30T20:59:12.422Z,35.80
2022-07-30T21:01:47.452Z,35.60
2022-07-30T21:04:23.768Z,35.70
2022-07-30T21:07:20.532Z,35.60
2022-07-30T21:12:52.923Z,35.70
2022-07-30T21:15:26.462Z,35.60
2022-07-30T21:18:13.933Z,35.90
2022-07-30T21:20:52.697Z,35.80
2022-07-30T21:23:34.864Z,36.00
2022-07-30T21:26:13.909Z,36.00
2022-07-30T21:28:46.081Z,36.00
2022-07-30T21:31:19.727Z,35.90
2022-07-30T21:34:13.670Z,36.00
2022-07-30T21:36:45.054Z,36.10
2022-07-30T21:39:17.756Z,36.20
2022-07-30T21:41:56.687Z,36.30
2022-07-30T21:44:28.697Z,36.30
2022-07-30T21:47:02.526Z,36.50
2022-07-30T21:49:36.855Z,36.50
2022-07-30T21:52:09.762Z,36.50
2022-07-30T21:54:45.669Z,36.50
2022-07-30T21:57:26.342Z,36.50
2022-07-30T21:59:57.647Z,36.40
2022-07-30T22:02:31.901Z,36.60
2022-07-30T22:05:08.850Z,36.60
2022-07-30T22:07:40.773Z,36.70
2022-07-30T22:13:20.791Z,36.60
2022-07-30T22:15:53.937Z,36.40
2022-07-30T22:18:24.829Z,36.30
2022-07-30T22:20:57.138Z,36.40
2022-07-30T22:23:30.148Z,36.40
2022-07-30T22:26:04.815Z,36.40
2022-07-30T22:28:42.455Z,36.60
2022-07-30T22:31:22.444Z,36.70
2022-07-30T22:33:52.767Z,36.50
2022-07-30T22:36:24.516Z,36.50
2022-07-30T22:39:00.141Z,36.60
2022-07-30T22:41:29.631Z,36.50
2022-07-30T22:44:05.565Z,36.40
2022-07-30T22:47:00.119Z,36.30
2022-07-30T22:49:56.045Z,36.10
2022-07-30T22:52:28.023Z,36.00
2022-07-30T22:55:10.455Z,35.90
2022-07-30T22:57:43.067Z,36.00
2022-07-30T23:00:27.189Z,36.10
2022-07-30T23:03:01.222Z,36.10
2022-07-30T23:05:35.299Z,36.10
2022-07-30T23:08:05.617Z,36.10
2022-07-30T23:10:41.631Z,35.90
2022-07-30T23:13:22.079Z,35.90
2022-07-30T23:15:53.329Z,36.00
2022-07-30T23:18:26.878Z,36.10
2022-07-30T23:21:00.394Z,36.20
2022-07-30T23:23:34.970Z,36.40
2022-07-30T23:26:09.503Z,36.40
2022-07-30T23:28:41.328Z,36.30
2022-07-30T23:31:11.969Z,36.20
2022-07-30T23:33:46.318Z,36.00
2022-07-30T23:36:16.383Z,36.10
2022-07-30T23:38:48.924Z,36.00
2022-07-30T23:41:30.695Z,35.90
2022-07-30T23:44:06.299Z,36.20
2022-07-30T23:46:39.453Z,36.70
2022-07-30T23:49:13.044Z,36.70
2022-07-30T23:51:45.854Z,36.40
2022-07-30T23:54:19.220Z,36.20
2022-07-30T23:56:54.972Z,35.90
2022-07-30T23:59:36.841Z,35.90
